createdAt,value
2019-03-23T00:00:49.352Z,27.95
2019-03-23T00:03:17.800Z,28.60
2019-03-23T00:05:46.217Z,32.88
2019-03-23T00:08:14.665Z,31.80
2019-03-23T00:10:43.078Z,33.80
2019-03-23T00:13:11.501Z,26.48
2019-03-23T00:15:39.910Z,26.95
2019-03-23T00:18:08.341Z,28.25
2019-03-23T00:20:36.813Z,24.55
2019-03-23T00:23:05.606Z,35.40
2019-03-23T00:25:34.009Z,30.25
2019-03-23T00:28:02.457Z,27.25
2019-03-23T00:30:30.923Z,32.40
2019-03-23T00:32:59.667Z,43.20
2019-03-23T00:35:28.171Z,32.25
2019-03-23T00:37:56.910Z,33.28
2019-03-23T00:40:25.343Z,29.82
2019-03-23T00:42:53.741Z,34.92
2019-03-23T00:45:22.174Z,37.85
2019-03-23T00:47:50.577Z,31.97
2019-03-23T00:50:19.034Z,33.45
2019-03-23T00:52:47.437Z,40.33
2019-03-23T00:55:15.971Z,31.30
2019-03-23T00:57:44.397Z,32.15
2019-03-23T01:00:13.849Z,33.90
2019-03-23T01:02:42.385Z,30.75
2019-03-23T01:05:11.057Z,33.58
2019-03-23T01:07:39.541Z,38.17
2019-03-23T01:10:10.415Z,38.92
2019-03-23T01:12:38.817Z,33.35
2019-03-23T01:15:09.709Z,34.88
2019-03-23T01:17:38.121Z,31.00
2019-03-23T01:20:11.558Z,30.68
2019-03-23T01:22:39.987Z,32.73
2019-03-23T01:25:10.281Z,33.98
2019-03-23T01:27:38.768Z,28.87
2019-03-23T01:30:10.289Z,28.32
2019-03-23T01:32:38.708Z,35.92
2019-03-23T01:35:07.918Z,32.23
2019-03-23T01:37:36.405Z,32.80
2019-03-23T01:40:06.697Z,33.05
2019-03-23T01:42:35.133Z,31.37
2019-03-23T01:45:05.118Z,27.20
2019-03-23T01:47:33.573Z,32.20
2019-03-23T01:50:02.187Z,34.20
2019-03-23T01:52:30.705Z,30.75
2019-03-23T01:54:59.176Z,31.48
2019-03-23T01:57:27.602Z,30.23
2019-03-23T01:59:56.012Z,27.07
2019-03-23T02:02:24.452Z,27.67
2019-03-23T02:04:52.945Z,28.75
2019-03-23T02:07:21.424Z,31.90
2019-03-23T02:09:49.876Z,31.25
2019-03-23T02:12:18.381Z,32.75
2019-03-23T02:14:46.785Z,29.98
2019-03-23T02:17:15.225Z,32.80
2019-03-23T02:19:43.774Z,31.07
2019-03-23T02:22:12.207Z,32.17
2019-03-23T02:24:40.617Z,31.10
2019-03-23T02:27:09.062Z,30.62
2019-03-23T02:29:37.489Z,33.67
2019-03-23T02:32:05.925Z,33.18
2019-03-23T02:34:34.404Z,31.40
2019-03-23T02:37:04.302Z,27.93
2019-03-23T02:39:32.785Z,29.05
2019-03-23T02:42:01.249Z,28.40
2019-03-23T02:44:29.746Z,32.33
2019-03-23T02:46:58.193Z,30.62
2019-03-23T02:49:26.695Z,29.00
2019-03-23T02:51:55.222Z,29.50
2019-03-23T02:54:23.631Z,31.90
2019-03-23T02:56:52.106Z,30.12
2019-03-23T02:59:20.541Z,32.50
2019-03-23T03:01:48.969Z,30.48
2019-03-23T03:04:17.394Z,29.10
2019-03-23T03:06:45.862Z,29.52
2019-03-23T03:09:14.265Z,26.45
2019-03-23T03:11:42.738Z,29.67
2019-03-23T03:14:11.226Z,27.35
2019-03-23T03:16:39.648Z,30.25
2019-03-23T03:19:08.173Z,25.30
2019-03-23T03:21:36.617Z,27.87
2019-03-23T03:24:05.055Z,26.68
2019-03-23T03:26:33.492Z,28.40
2019-03-23T03:29:01.915Z,27.75
2019-03-23T03:31:30.391Z,30.15
2019-03-23T03:33:58.887Z,31.10
2019-03-23T03:36:29.953Z,26.40
2019-03-23T03:38:57.476Z,29.98
2019-03-23T03:41:25.880Z,26.93
2019-03-23T03:43:54.323Z,25.43
2019-03-23T03:46:22.735Z,27.73
2019-03-23T03:48:51.178Z,28.20
2019-03-23T03:51:22.499Z,31.93
2019-03-23T03:53:50.921Z,25.92
2019-03-23T03:56:19.323Z,32.28
2019-03-23T03:58:47.869Z,27.05
2019-03-23T04:01:16.320Z,29.70
2019-03-23T04:03:44.857Z,29.63
2019-03-23T04:06:13.281Z,27.17
2019-03-23T04:08:41.708Z,31.62
2019-03-23T04:11:10.106Z,31.87
2019-03-23T04:13:38.538Z,28.73
2019-03-23T04:16:07.223Z,29.75
2019-03-23T04:18:35.662Z,28.60
2019-03-23T04:21:04.101Z,30.00
2019-03-23T04:23:32.564Z,29.42
2019-03-23T04:26:01.023Z,28.85
2019-03-23T04:28:29.449Z,25.68
2019-03-23T04:30:57.884Z,28.20
2019-03-23T04:33:26.346Z,30.52
2019-03-23T04:35:54.770Z,28.50
2019-03-23T04:38:23.433Z,26.68
2019-03-23T04:40:51.908Z,36.60
2019-03-23T04:43:20.323Z,28.75
2019-03-23T04:45:48.747Z,32.38
2019-03-23T04:48:17.177Z,29.90
2019-03-23T04:50:45.598Z,28.05
2019-03-23T04:53:14.058Z,29.12
2019-03-23T04:55:42.459Z,29.15
2019-03-23T04:58:10.948Z,31.70
2019-03-23T05:00:39.353Z,29.32
2019-03-23T05:03:07.765Z,31.48
2019-03-23T05:05:36.185Z,28.70
2019-03-23T05:08:04.588Z,30.72
2019-03-23T05:10:33.356Z,30.20
2019-03-23T05:13:01.775Z,22.25
2019-03-23T05:15:30.249Z,28.15
2019-03-23T05:17:58.661Z,24.70
2019-03-23T05:20:31.454Z,29.90
2019-03-23T05:23:00.354Z,26.55
2019-03-23T05:25:29.801Z,24.90
2019-03-23T05:27:58.661Z,28.77
2019-03-23T05:30:27.126Z,26.70
2019-03-23T05:32:55.516Z,23.18
2019-03-23T05:35:23.964Z,27.20
2019-03-23T05:37:52.447Z,21.37
2019-03-23T05:40:20.911Z,28.25
2019-03-23T05:42:49.383Z,24.57
2019-03-23T05:45:17.903Z,24.85
2019-03-23T05:47:46.305Z,25.82
2019-03-23T05:50:14.738Z,26.40
2019-03-23T05:52:43.225Z,22.77
2019-03-23T05:55:11.800Z,26.80
2019-03-23T05:57:40.233Z,25.50
2019-03-23T06:00:11.331Z,21.10
2019-03-23T06:02:39.825Z,26.77
2019-03-23T06:05:08.740Z,30.30
2019-03-23T06:07:37.145Z,32.63
2019-03-23T06:10:06.741Z,29.05
2019-03-23T06:12:35.189Z,25.17
2019-03-23T06:15:05.371Z,26.65
2019-03-23T06:17:33.777Z,29.40
2019-03-23T06:20:04.572Z,23.30
2019-03-23T06:22:33.041Z,22.45
2019-03-23T06:25:01.523Z,26.05
2019-03-23T06:27:30.202Z,30.10
2019-03-23T06:29:58.641Z,23.70
2019-03-23T06:32:27.554Z,21.50
2019-03-23T06:34:56.009Z,21.95
2019-03-23T06:37:24.414Z,25.02
2019-03-23T06:39:52.848Z,20.90
2019-03-23T06:42:21.729Z,20.97
2019-03-23T06:44:50.152Z,19.75
2019-03-23T06:47:18.653Z,19.50
2019-03-23T06:49:47.071Z,15.25
2019-03-23T06:52:15.503Z,21.10
2019-03-23T06:54:44.246Z,15.25
2019-03-23T06:57:12.737Z,19.10
2019-03-23T06:59:41.222Z,21.33
2019-03-23T07:02:09.684Z,13.75
2019-03-23T07:04:38.124Z,17.92
2019-03-23T07:07:06.536Z,18.40
2019-03-23T07:09:35.005Z,16.93
2019-03-23T07:12:03.459Z,18.17
2019-03-23T07:14:31.861Z,17.15
2019-03-23T07:17:00.293Z,14.93
2019-03-23T07:19:28.702Z,21.17
2019-03-23T07:21:57.161Z,15.58
2019-03-23T07:24:25.581Z,17.97
2019-03-23T07:26:54.038Z,14.63
2019-03-23T07:29:22.449Z,31.40
2019-03-23T07:31:50.941Z,16.80
2019-03-23T07:34:19.384Z,18.20
2019-03-23T07:36:47.811Z,16.50
2019-03-23T07:39:26.470Z,14.87
2019-03-23T07:41:46.433Z,16.93
2019-03-23T07:44:14.843Z,16.10
2019-03-23T07:46:43.640Z,18.60
2019-03-23T07:49:12.476Z,19.10
2019-03-23T07:51:40.906Z,19.40
2019-03-23T07:54:09.333Z,18.00
2019-03-23T07:56:37.779Z,16.10
2019-03-23T07:59:06.226Z,14.03
2019-03-23T08:01:35.071Z,15.47
2019-03-23T08:04:03.890Z,19.93
2019-03-23T08:06:32.626Z,16.33
2019-03-23T08:09:01.039Z,20.20
2019-03-23T08:11:29.492Z,16.23
2019-03-23T08:13:57.952Z,16.43
2019-03-23T08:16:26.376Z,18.30
2019-03-23T08:18:55.089Z,24.03
2019-03-23T08:21:23.517Z,20.73
2019-03-23T08:23:52.055Z,24.30
2019-03-23T08:26:20.801Z,19.57
2019-03-23T08:28:49.215Z,20.30
2019-03-23T08:31:17.638Z,52.20
2019-03-23T08:33:46.438Z,34.93
2019-03-23T08:36:14.938Z,30.03
2019-03-23T08:38:43.362Z,22.70
2019-03-23T08:41:11.817Z,34.23
2019-03-23T08:43:40.229Z,34.07
2019-03-23T08:46:08.666Z,25.20
2019-03-23T08:48:37.190Z,27.93
2019-03-23T08:51:05.674Z,109.07
2019-03-23T08:53:34.105Z,89.20
2019-03-23T08:56:02.525Z,791.97
2019-03-23T08:58:29.972Z,426.10
2019-03-23T09:00:59.317Z,1018.30
2019-03-23T09:03:27.736Z,1100.07
2019-03-23T09:05:56.172Z,948.73
2019-03-23T09:08:24.601Z,1151.40
2019-03-23T09:10:53.127Z,1129.63
2019-03-23T09:13:21.569Z,1071.33
2019-03-23T09:15:50.153Z,860.23
2019-03-23T09:18:18.591Z,776.20
2019-03-23T09:20:47.114Z,727.37
2019-03-23T09:23:15.687Z,700.40
2019-03-23T09:25:45.698Z,641.17
2019-03-23T09:28:14.598Z,641.80
2019-03-23T09:30:43.045Z,599.83
2019-03-23T09:33:11.473Z,623.30
2019-03-23T09:35:40.037Z,417.87
2019-03-23T09:38:08.510Z,227.57
2019-03-23T09:40:36.947Z,82.07
2019-03-23T09:43:05.369Z,52.67
2019-03-23T09:45:33.805Z,69.23
2019-03-23T09:48:02.245Z,49.83
2019-03-23T09:50:30.822Z,55.53
2019-03-23T09:52:59.343Z,65.83
2019-03-23T09:55:28.738Z,37.90
2019-03-23T09:57:57.333Z,34.53
2019-03-23T10:00:25.782Z,32.70
2019-03-23T10:02:54.200Z,33.37
2019-03-23T10:05:22.613Z,32.97
2019-03-23T10:07:51.111Z,30.23
2019-03-23T10:10:21.925Z,29.60
2019-03-23T10:12:49.747Z,34.73
2019-03-23T10:15:18.239Z,32.43
2019-03-23T10:17:46.662Z,33.40
2019-03-23T10:20:15.097Z,36.37
2019-03-23T10:22:43.522Z,34.70
2019-03-23T10:25:11.923Z,35.57
2019-03-23T10:27:40.357Z,31.27
2019-03-23T10:30:10.669Z,37.70
2019-03-23T10:32:39.169Z,36.47
2019-03-23T10:35:08.704Z,75.07
2019-03-23T10:37:37.243Z,52.93
2019-03-23T10:40:07.757Z,36.43
2019-03-23T10:42:36.248Z,38.70
2019-03-23T10:45:09.230Z,37.40
2019-03-23T10:47:37.774Z,34.73
2019-03-23T10:50:06.927Z,46.63
2019-03-23T10:52:35.385Z,37.47
2019-03-23T10:55:07.893Z,32.10
2019-03-23T10:57:36.309Z,47.60
2019-03-23T11:00:10.912Z,43.43
2019-03-23T11:02:39.881Z,33.97
2019-03-23T11:05:09.039Z,36.20
2019-03-23T11:07:37.492Z,32.13
2019-03-23T11:10:08.378Z,36.17
2019-03-23T11:12:37.241Z,37.43
2019-03-23T11:15:07.901Z,32.50
2019-03-23T11:17:37.138Z,36.13
2019-03-23T11:20:08.210Z,33.17
2019-03-23T11:22:36.637Z,38.07
2019-03-23T11:25:07.286Z,32.90
2019-03-23T11:27:35.733Z,34.83
2019-03-23T11:30:09.761Z,32.20
2019-03-23T11:32:38.185Z,30.73
2019-03-23T11:35:08.155Z,28.33
2019-03-23T11:37:37.729Z,30.87
2019-03-23T11:40:09.766Z,27.60
2019-03-23T11:42:48.845Z,21.30
2019-03-23T11:45:10.387Z,27.13
2019-03-23T11:47:38.896Z,25.80
2019-03-23T11:50:09.633Z,31.27
2019-03-23T11:52:38.109Z,25.67
2019-03-23T11:55:07.577Z,26.40
2019-03-23T11:57:36.057Z,26.43
2019-03-23T12:00:07.201Z,23.87
2019-03-23T12:02:35.707Z,27.30
2019-03-23T12:05:06.859Z,30.33
2019-03-23T12:07:35.291Z,30.90
2019-03-23T12:10:09.403Z,27.43
2019-03-23T12:12:37.867Z,28.80
2019-03-23T12:15:11.593Z,30.30
2019-03-23T12:17:40.081Z,27.80
2019-03-23T12:20:08.987Z,21.80
2019-03-23T12:22:37.391Z,26.27
2019-03-23T12:25:06.550Z,25.53
2019-03-23T12:27:35.056Z,24.10
2019-03-23T12:30:07.514Z,24.70
2019-03-23T12:32:34.779Z,24.90
2019-03-23T12:35:03.974Z,32.50
2019-03-23T12:37:32.389Z,27.17
2019-03-23T12:40:00.893Z,22.00
2019-03-23T12:42:29.301Z,31.33
2019-03-23T12:44:57.755Z,29.07
2019-03-23T12:47:26.193Z,26.77
2019-03-23T12:49:54.674Z,23.03
2019-03-23T12:52:24.800Z,26.40
2019-03-23T12:54:53.445Z,26.70
2019-03-23T12:57:21.898Z,27.83
2019-03-23T12:59:50.339Z,27.60
2019-03-23T13:02:20.049Z,28.67
2019-03-23T13:04:48.642Z,26.43
2019-03-23T13:07:17.196Z,31.13
2019-03-23T13:09:45.928Z,25.47
2019-03-23T13:12:14.365Z,29.00
2019-03-23T13:14:43.053Z,28.67
2019-03-23T13:17:11.468Z,28.43
2019-03-23T13:19:40.110Z,30.33
2019-03-23T13:22:08.628Z,30.27
2019-03-23T13:24:37.094Z,28.60
2019-03-23T13:27:05.524Z,27.50
2019-03-23T13:29:34.073Z,33.80
2019-03-23T13:32:02.849Z,35.03
2019-03-23T13:34:31.531Z,31.60
2019-03-23T13:36:59.943Z,32.13
2019-03-23T13:39:28.365Z,34.37
2019-03-23T13:41:56.847Z,36.93
2019-03-23T13:44:25.337Z,33.40
2019-03-23T13:46:53.745Z,31.70
2019-03-23T13:49:22.251Z,34.57
2019-03-23T13:51:50.706Z,34.07
2019-03-23T13:54:19.195Z,31.00
2019-03-23T13:56:47.644Z,29.53
2019-03-23T13:59:17.880Z,30.60
2019-03-23T14:01:46.362Z,30.60
2019-03-23T14:04:14.798Z,29.80
2019-03-23T14:06:43.305Z,31.77
2019-03-23T14:09:12.646Z,34.40
2019-03-23T14:11:41.104Z,32.80
2019-03-23T14:14:10.117Z,30.00
2019-03-23T14:16:38.539Z,26.90
2019-03-23T14:19:06.961Z,32.30
2019-03-23T14:21:35.389Z,26.67
2019-03-23T14:24:03.849Z,30.33
2019-03-23T14:26:32.382Z,27.97
2019-03-23T14:29:00.802Z,27.40
2019-03-23T14:31:29.321Z,30.23
2019-03-23T14:33:57.845Z,27.63
2019-03-23T14:36:26.319Z,28.97
2019-03-23T14:38:54.796Z,26.77
2019-03-23T14:41:23.266Z,27.97
2019-03-23T14:43:51.749Z,25.63
2019-03-23T14:46:20.242Z,26.60
2019-03-23T14:48:49.182Z,23.20
2019-03-23T14:51:17.616Z,23.73
2019-03-23T14:53:46.093Z,25.33
2019-03-23T14:56:14.565Z,25.17
2019-03-23T14:58:43.001Z,23.10
2019-03-23T15:01:11.425Z,27.30
2019-03-23T15:03:39.898Z,29.27
2019-03-23T15:06:08.309Z,27.80
2019-03-23T15:08:36.735Z,26.60
2019-03-23T15:11:05.194Z,30.00
2019-03-23T15:13:33.614Z,29.30
2019-03-23T15:16:02.053Z,26.70
2019-03-23T15:18:30.462Z,28.27
2019-03-23T15:20:58.890Z,27.37
2019-03-23T15:23:27.617Z,35.70
2019-03-23T15:25:56.188Z,25.90
2019-03-23T15:28:24.607Z,25.00
2019-03-23T15:30:53.018Z,27.83
2019-03-23T15:33:21.519Z,24.83
2019-03-23T15:35:49.982Z,26.47
2019-03-23T15:38:18.479Z,29.30
2019-03-23T15:40:46.886Z,28.90
2019-03-23T15:43:15.323Z,27.90
2019-03-23T15:45:43.745Z,31.93
2019-03-23T15:48:12.167Z,27.90
2019-03-23T15:50:40.616Z,27.80
2019-03-23T15:53:09.126Z,33.53
2019-03-23T15:55:37.594Z,36.80
2019-03-23T15:58:06.059Z,29.63
2019-03-23T16:00:34.589Z,31.93
2019-03-23T16:03:03.050Z,36.20
2019-03-23T16:05:31.471Z,33.50
2019-03-23T16:07:59.934Z,30.33
2019-03-23T16:10:28.385Z,33.10
2019-03-23T16:12:56.794Z,31.73
2019-03-23T16:15:25.259Z,31.50
2019-03-23T16:17:53.718Z,36.10
2019-03-23T16:20:22.134Z,37.87
2019-03-23T16:22:50.557Z,42.30
2019-03-23T16:25:18.993Z,38.83
2019-03-23T16:27:47.770Z,39.03
2019-03-23T16:30:19.253Z,37.77
2019-03-23T16:32:47.995Z,40.43
2019-03-23T16:35:16.465Z,40.20
2019-03-23T16:37:44.903Z,38.80
2019-03-23T16:40:13.681Z,44.63
2019-03-23T16:42:45.584Z,41.43
2019-03-23T16:45:12.507Z,41.30
2019-03-23T16:47:40.995Z,41.80
2019-03-23T16:50:09.947Z,40.60
2019-03-23T16:52:38.807Z,42.87
2019-03-23T16:55:08.864Z,39.53
2019-03-23T16:57:49.068Z,46.53
2019-03-23T17:00:20.566Z,47.77
2019-03-23T17:02:49.399Z,41.43
2019-03-23T17:05:17.811Z,46.80
2019-03-23T17:07:46.538Z,43.80
2019-03-23T17:10:15.013Z,46.30
2019-03-23T17:12:43.440Z,43.10
2019-03-23T17:15:12.417Z,49.60
2019-03-23T17:17:40.871Z,45.73
2019-03-23T17:20:10.178Z,53.50
2019-03-23T17:22:38.659Z,48.63
2019-03-23T17:25:07.164Z,50.33
2019-03-23T17:27:35.646Z,45.30
2019-03-23T17:30:07.142Z,51.00
2019-03-23T17:32:36.147Z,48.23
2019-03-23T17:35:07.022Z,45.20
2019-03-23T17:37:35.460Z,46.30
2019-03-23T17:40:06.019Z,48.30
2019-03-23T17:42:34.576Z,48.73
2019-03-23T17:45:03.387Z,42.67
2019-03-23T17:47:31.917Z,45.77
2019-03-23T17:50:00.387Z,44.23
2019-03-23T17:52:28.852Z,48.80
2019-03-23T17:54:57.325Z,49.73
2019-03-23T17:57:25.750Z,52.00
2019-03-23T17:59:54.253Z,55.63
2019-03-23T18:02:22.746Z,55.70
2019-03-23T18:04:51.194Z,559.23
2019-03-23T18:07:19.710Z,711.67
2019-03-23T18:09:48.221Z,1999.90
2019-03-23T18:12:16.683Z,1999.90
2019-03-23T18:14:45.113Z,915.40
2019-03-23T18:17:13.536Z,1452.83
2019-03-23T18:19:41.997Z,897.13
2019-03-23T18:22:10.929Z,940.53
2019-03-23T18:24:39.483Z,973.63
2019-03-23T18:27:07.917Z,638.53
2019-03-23T18:29:36.681Z,1017.30
2019-03-23T18:32:05.112Z,919.80
2019-03-23T18:34:33.573Z,1088.97
2019-03-23T18:37:02.333Z,307.33
2019-03-23T18:39:30.831Z,632.27
2019-03-23T18:41:59.353Z,192.43
2019-03-23T18:44:28.109Z,57.37
2019-03-23T18:46:56.517Z,85.90
2019-03-23T18:49:27.740Z,127.27
2019-03-23T18:51:56.161Z,96.00
2019-03-23T18:54:24.794Z,89.80
2019-03-23T18:56:53.185Z,84.10
2019-03-23T18:59:21.648Z,96.50
2019-03-23T19:01:51.786Z,100.83
2019-03-23T19:04:22.443Z,83.77
2019-03-23T19:06:51.115Z,86.27
2019-03-23T19:09:19.581Z,77.13
2019-03-23T19:11:48.290Z,66.37
2019-03-23T19:14:16.746Z,55.87
2019-03-23T19:16:45.205Z,57.67
2019-03-23T19:19:13.649Z,46.93
2019-03-23T19:21:42.078Z,51.10
2019-03-23T19:24:10.589Z,40.97
2019-03-23T19:26:38.991Z,43.33
2019-03-23T19:29:07.778Z,51.37
2019-03-23T19:31:36.209Z,44.97
2019-03-23T19:34:04.709Z,46.63
2019-03-23T19:36:33.310Z,47.07
2019-03-23T19:39:01.732Z,51.13
2019-03-23T19:41:30.157Z,50.27
2019-03-23T19:43:58.565Z,48.57
2019-03-23T19:46:26.989Z,45.67
2019-03-23T19:48:55.474Z,46.37
2019-03-23T19:51:24.206Z,48.90
2019-03-23T19:53:52.617Z,46.10
2019-03-23T19:56:21.075Z,52.97
2019-03-23T19:58:49.473Z,44.57
2019-03-23T20:01:17.928Z,46.27
2019-03-23T20:03:46.341Z,49.77
2019-03-23T20:06:14.806Z,46.87
2019-03-23T20:08:43.223Z,47.80
2019-03-23T20:11:11.674Z,48.60
2019-03-23T20:13:40.174Z,49.70
2019-03-23T20:16:08.634Z,51.07
2019-03-23T20:18:37.049Z,43.17
2019-03-23T20:21:05.502Z,46.43
2019-03-23T20:23:34.220Z,48.57
2019-03-23T20:26:02.790Z,45.13
2019-03-23T20:28:31.197Z,44.83
2019-03-23T20:30:59.650Z,38.80
2019-03-23T20:33:28.082Z,40.13
2019-03-23T20:35:56.532Z,42.23
2019-03-23T20:38:24.940Z,42.93
2019-03-23T20:40:53.377Z,39.93
2019-03-23T20:43:23.347Z,44.03
2019-03-23T20:45:52.274Z,43.50
2019-03-23T20:48:20.690Z,47.67
2019-03-23T20:50:49.120Z,44.13
2019-03-23T20:53:19.036Z,41.40
2019-03-23T20:55:47.453Z,43.67
2019-03-23T20:58:15.893Z,47.73
2019-03-23T21:00:44.415Z,49.83
2019-03-23T21:03:12.889Z,48.27
2019-03-23T21:05:41.646Z,44.87
2019-03-23T21:08:10.334Z,51.30
2019-03-23T21:10:40.850Z,45.80
2019-03-23T21:13:09.120Z,44.30
2019-03-23T21:15:37.544Z,45.00
2019-03-23T21:18:05.951Z,45.13
2019-03-23T21:20:34.746Z,48.73
2019-03-23T21:23:03.180Z,44.40
2019-03-23T21:25:31.602Z,49.53
2019-03-23T21:28:00.049Z,49.37
2019-03-23T21:30:28.501Z,46.40
2019-03-23T21:32:57.230Z,49.83
2019-03-23T21:35:27.422Z,48.33
2019-03-23T21:37:55.899Z,51.20
2019-03-23T21:40:24.379Z,41.00
2019-03-23T21:42:53.089Z,44.07
2019-03-23T21:45:21.572Z,46.70
2019-03-23T21:47:50.070Z,47.00
2019-03-23T21:50:18.685Z,52.53
2019-03-23T21:52:47.132Z,41.23
2019-03-23T21:55:16.153Z,45.47
2019-03-23T21:57:44.585Z,42.30
2019-03-23T22:00:14.589Z,47.37
2019-03-23T22:02:43.146Z,43.50
2019-03-23T22:05:11.738Z,43.07
2019-03-23T22:07:40.264Z,50.13
2019-03-23T22:10:09.040Z,48.20
2019-03-23T22:12:37.473Z,53.27
2019-03-23T22:15:08.196Z,48.35
2019-03-23T22:17:36.714Z,42.60
2019-03-23T22:20:08.965Z,48.83
2019-03-23T22:22:40.006Z,50.95
2019-03-23T22:25:08.553Z,45.30
2019-03-23T22:27:41.681Z,49.27
2019-03-23T22:30:12.763Z,52.40
2019-03-23T22:32:43.063Z,47.50
2019-03-23T22:35:14.378Z,54.00
2019-03-23T22:37:44.452Z,50.65
2019-03-23T22:40:13.021Z,46.18
2019-03-23T22:42:41.487Z,49.85
2019-03-23T22:45:10.373Z,49.25
2019-03-23T22:47:38.785Z,56.05
2019-03-23T22:50:08.137Z,49.98
2019-03-23T22:52:36.565Z,53.55
2019-03-23T22:55:08.160Z,56.70
2019-03-23T22:57:36.790Z,44.33
2019-03-23T23:00:11.913Z,50.08
2019-03-23T23:02:40.528Z,43.85
2019-03-23T23:05:11.220Z,46.53
2019-03-23T23:07:39.323Z,44.48
2019-03-23T23:10:07.941Z,54.65
2019-03-23T23:12:37.887Z,48.50
2019-03-23T23:15:08.965Z,49.95
2019-03-23T23:17:37.380Z,49.67
2019-03-23T23:20:07.651Z,48.92
2019-03-23T23:22:38.004Z,48.20
2019-03-23T23:25:08.775Z,48.60
2019-03-23T23:27:39.454Z,46.83
2019-03-23T23:30:13.479Z,44.23
2019-03-23T23:32:42.025Z,47.90
2019-03-23T23:35:11.198Z,47.48
2019-03-23T23:37:39.622Z,46.30
2019-03-23T23:40:09.394Z,48.50
2019-03-23T23:42:37.813Z,48.25
2019-03-23T23:45:15.412Z,47.95
2019-03-23T23:47:38.349Z,47.85
2019-03-23T23:50:07.089Z,42.33
2019-03-23T23:52:35.577Z,43.78
2019-03-23T23:55:05.431Z,50.10
2019-03-23T23:57:33.854Z,41.98
